sensor_id;sensor_type;location;lat;lon;timestamp;pressure;altitude;pressure_sealevel;temperature
75428;BMP280;64008;55.612;37.698;2023-01-16T00:00:16;99835.06;;;18.10
75428;BMP280;64008;55.612;37.698;2023-01-16T00:02:42;99839.06;;;18.07
75428;BMP280;64008;55.612;37.698;2023-01-16T00:05:08;99839.34;;;18.06
75428;BMP280;64008;55.612;37.698;2023-01-16T00:07:33;99838.81;;;18.04
75428;BMP280;64008;55.612;37.698;2023-01-16T00:09:59;99832.38;;;18.05
75428;BMP280;64008;55.612;37.698;2023-01-16T00:12:24;99835.00;;;18.15
75428;BMP280;64008;55.612;37.698;2023-01-16T00:14:49;99825.38;;;18.14
75428;BMP280;64008;55.612;37.698;2023-01-16T00:17:15;99832.94;;;18.07
75428;BMP280;64008;55.612;37.698;2023-01-16T00:19:40;99821.97;;;18.03
75428;BMP280;64008;55.612;37.698;2023-01-16T00:22:06;99824.63;;;18.08
75428;BMP280;64008;55.612;37.698;2023-01-16T00:24:31;99830.94;;;18.23
75428;BMP280;64008;55.612;37.698;2023-01-16T00:26:57;99819.84;;;18.05
75428;BMP280;64008;55.612;37.698;2023-01-16T00:29:22;99813.66;;;18.05
75428;BMP280;64008;55.612;37.698;2023-01-16T00:31:48;99806.44;;;18.10
75428;BMP280;64008;55.612;37.698;2023-01-16T00:34:13;99807.19;;;18.16
75428;BMP280;64008;55.612;37.698;2023-01-16T00:36:39;99800.03;;;18.06
75428;BMP280;64008;55.612;37.698;2023-01-16T00:39:05;99801.13;;;18.05
75428;BMP280;64008;55.612;37.698;2023-01-16T00:41:30;99799.25;;;18.06
75428;BMP280;64008;55.612;37.698;2023-01-16T00:43:56;99798.22;;;18.02
75428;BMP280;64008;55.612;37.698;2023-01-16T00:46:24;99794.94;;;18.05
75428;BMP280;64008;55.612;37.698;2023-01-16T00:48:50;99801.91;;;18.06
75428;BMP280;64008;55.612;37.698;2023-01-16T00:51:16;99801.16;;;17.95
75428;BMP280;64008;55.612;37.698;2023-01-16T00:53:41;99797.88;;;18.08
75428;BMP280;64008;55.612;37.698;2023-01-16T00:56:07;99792.28;;;18.05
75428;BMP280;64008;55.612;37.698;2023-01-16T00:58:32;99788.31;;;18.02
75428;BMP280;64008;55.612;37.698;2023-01-16T01:01:00;99785.31;;;18.09
75428;BMP280;64008;55.612;37.698;2023-01-16T01:03:27;99786.66;;;18.06
75428;BMP280;64008;55.612;37.698;2023-01-16T01:05:53;99765.00;;;18.08
75428;BMP280;64008;55.612;37.698;2023-01-16T01:08:18;99763.69;;;18.05
75428;BMP280;64008;55.612;37.698;2023-01-16T01:10:44;99769.00;;;18.10
75428;BMP280;64008;55.612;37.698;2023-01-16T01:13:10;99762.94;;;17.94
75428;BMP280;64008;55.612;37.698;2023-01-16T01:15:36;99773.38;;;17.96
75428;BMP280;64008;55.612;37.698;2023-01-16T01:18:02;99779.03;;;17.89
75428;BMP280;64008;55.612;37.698;2023-01-16T01:20:28;99769.84;;;18.06
75428;BMP280;64008;55.612;37.698;2023-01-16T01:22:53;99770.91;;;18.05
75428;BMP280;64008;55.612;37.698;2023-01-16T01:25:19;99774.56;;;18.14
75428;BMP280;64008;55.612;37.698;2023-01-16T01:27:45;99766.25;;;18.21
75428;BMP280;64008;55.612;37.698;2023-01-16T01:30:10;99769.78;;;18.11
75428;BMP280;64008;55.612;37.698;2023-01-16T01:32:36;99755.03;;;18.19
75428;BMP280;64008;55.612;37.698;2023-01-16T01:35:07;99757.22;;;18.17
75428;BMP280;64008;55.612;37.698;2023-01-16T01:37:34;99759.03;;;18.21
75428;BMP280;64008;55.612;37.698;2023-01-16T01:40:00;99751.81;;;18.22
75428;BMP280;64008;55.612;37.698;2023-01-16T01:42:26;99755.53;;;18.26
75428;BMP280;64008;55.612;37.698;2023-01-16T01:45:19;99741.84;;;18.27
75428;BMP280;64008;55.612;37.698;2023-01-16T01:47:59;99732.31;;;18.21
75428;BMP280;64008;55.612;37.698;2023-01-16T01:55:50;99737.66;;;18.16
75428;BMP280;64008;55.612;37.698;2023-01-16T01:58:19;99731.78;;;18.14
75428;BMP280;64008;55.612;37.698;2023-01-16T02:00:50;99730.47;;;18.17
75428;BMP280;64008;55.612;37.698;2023-01-16T02:03:22;99720.03;;;18.15
75428;BMP280;64008;55.612;37.698;2023-01-16T02:05:53;99719.06;;;18.01
75428;BMP280;64008;55.612;37.698;2023-01-16T02:08:21;99713.69;;;18.06
75428;BMP280;64008;55.612;37.698;2023-01-16T02:11:07;99704.06;;;18.05
75428;BMP280;64008;55.612;37.698;2023-01-16T02:13:36;99709.41;;;18.05
75428;BMP280;64008;55.612;37.698;2023-01-16T02:16:03;99714.47;;;18.06
75428;BMP280;64008;55.612;37.698;2023-01-16T02:18:47;99714.22;;;18.08
75428;BMP280;64008;55.612;37.698;2023-01-16T02:26:51;99692.19;;;18.21
75428;BMP280;64008;55.612;37.698;2023-01-16T02:29:30;99697.88;;;18.09
75428;BMP280;64008;55.612;37.698;2023-01-16T02:35:13;99693.91;;;18.07
75428;BMP280;64008;55.612;37.698;2023-01-16T02:37:49;99702.59;;;18.18
75428;BMP280;64008;55.612;37.698;2023-01-16T02:43:02;99696.03;;;18.10
75428;BMP280;64008;55.612;37.698;2023-01-16T02:48:05;99701.94;;;18.07
75428;BMP280;64008;55.612;37.698;2023-01-16T02:50:44;99697.13;;;18.04
75428;BMP280;64008;55.612;37.698;2023-01-16T02:55:48;99682.38;;;18.11
75428;BMP280;64008;55.612;37.698;2023-01-16T02:58:16;99691.00;;;18.03
75428;BMP280;64008;55.612;37.698;2023-01-16T03:00:54;99700.84;;;18.08
75428;BMP280;64008;55.612;37.698;2023-01-16T03:03:47;99673.81;;;18.09
75428;BMP280;64008;55.612;37.698;2023-01-16T03:08:56;99672.53;;;18.07
75428;BMP280;64008;55.612;37.698;2023-01-16T03:11:28;99662.31;;;18.09
75428;BMP280;64008;55.612;37.698;2023-01-16T03:22:16;99654.69;;;17.97
75428;BMP280;64008;55.612;37.698;2023-01-16T03:25:24;99652.03;;;17.97
75428;BMP280;64008;55.612;37.698;2023-01-16T03:28:37;99652.19;;;18.06
75428;BMP280;64008;55.612;37.698;2023-01-16T03:30:52;99646.34;;;18.04
75428;BMP280;64008;55.612;37.698;2023-01-16T03:33:36;99655.97;;;18.00
75428;BMP280;64008;55.612;37.698;2023-01-16T03:36:13;99651.47;;;17.95
75428;BMP280;64008;55.612;37.698;2023-01-16T03:38:42;99642.28;;;18.11
75428;BMP280;64008;55.612;37.698;2023-01-16T03:41:12;99646.59;;;18.07
75428;BMP280;64008;55.612;37.698;2023-01-16T03:43:38;99656.81;;;18.00
75428;BMP280;64008;55.612;37.698;2023-01-16T03:48:36;99655.97;;;18.00
75428;BMP280;64008;55.612;37.698;2023-01-16T03:51:06;99659.94;;;18.07
75428;BMP280;64008;55.612;37.698;2023-01-16T03:54:04;99653.25;;;18.05
75428;BMP280;64008;55.612;37.698;2023-01-16T03:56:46;99653.31;;;18.00
75428;BMP280;64008;55.612;37.698;2023-01-16T03:59:14;99643.38;;;18.05
75428;BMP280;64008;55.612;37.698;2023-01-16T04:02:00;99638.84;;;18.06
75428;BMP280;64008;55.612;37.698;2023-01-16T04:04:30;99634.09;;;17.98
75428;BMP280;64008;55.612;37.698;2023-01-16T04:07:11;99641.00;;;18.04
75428;BMP280;64008;55.612;37.698;2023-01-16T04:12:13;99648.47;;;18.07
75428;BMP280;64008;55.612;37.698;2023-01-16T04:14:43;99641.56;;;18.01
75428;BMP280;64008;55.612;37.698;2023-01-16T04:17:10;99635.44;;;17.95
75428;BMP280;64008;55.612;37.698;2023-01-16T04:19:35;99635.69;;;17.99
75428;BMP280;64008;55.612;37.698;2023-01-16T04:22:08;99637.72;;;18.12
75428;BMP280;64008;55.612;37.698;2023-01-16T04:24:44;99646.22;;;18.14
75428;BMP280;64008;55.612;37.698;2023-01-16T04:27:09;99630.81;;;18.06
75428;BMP280;64008;55.612;37.698;2023-01-16T04:29:34;99632.13;;;18.08
75428;BMP280;64008;55.612;37.698;2023-01-16T04:32:00;99632.75;;;18.00
75428;BMP280;64008;55.612;37.698;2023-01-16T04:34:25;99635.16;;;18.02
75428;BMP280;64008;55.612;37.698;2023-01-16T04:36:51;99635.38;;;18.05
75428;BMP280;64008;55.612;37.698;2023-01-16T04:39:16;99628.75;;;17.98
75428;BMP280;64008;55.612;37.698;2023-01-16T04:41:42;99634.84;;;18.03
75428;BMP280;64008;55.612;37.698;2023-01-16T04:44:10;99624.47;;;18.02
75428;BMP280;64008;55.612;37.698;2023-01-16T04:46:35;99636.78;;;17.98
75428;BMP280;64008;55.612;37.698;2023-01-16T04:49:03;99627.81;;;18.12
75428;BMP280;64008;55.612;37.698;2023-01-16T04:51:29;99630.03;;;18.05
75428;BMP280;64008;55.612;37.698;2023-01-16T04:53:55;99618.50;;;18.05
75428;BMP280;64008;55.612;37.698;2023-01-16T04:56:21;99623.41;;;17.98
75428;BMP280;64008;55.612;37.698;2023-01-16T04:58:47;99622.28;;;18.04
75428;BMP280;64008;55.612;37.698;2023-01-16T05:01:15;99618.50;;;18.05
75428;BMP280;64008;55.612;37.698;2023-01-16T05:03:40;99618.06;;;17.98
75428;BMP280;64008;55.612;37.698;2023-01-16T05:06:06;99622.38;;;17.88
75428;BMP280;64008;55.612;37.698;2023-01-16T05:08:31;99615.03;;;18.04
75428;BMP280;64008;55.612;37.698;2023-01-16T05:10:57;99621.78;;;18.02
75428;BMP280;64008;55.612;37.698;2023-01-16T05:13:26;99629.81;;;17.97
75428;BMP280;64008;55.612;37.698;2023-01-16T05:15:52;99621.22;;;18.00
75428;BMP280;64008;55.612;37.698;2023-01-16T05:18:17;99629.25;;;18.00
75428;BMP280;64008;55.612;37.698;2023-01-16T05:20:43;99613.78;;;17.97
75428;BMP280;64008;55.612;37.698;2023-01-16T05:23:08;99614.09;;;17.90
75428;BMP280;64008;55.612;37.698;2023-01-16T05:25:38;99619.66;;;17.93
75428;BMP280;64008;55.612;37.698;2023-01-16T05:28:03;99619.19;;;17.91
75428;BMP280;64008;55.612;37.698;2023-01-16T05:30:29;99606.59;;;17.97
75428;BMP280;64008;55.612;37.698;2023-01-16T05:32:55;99604.50;;;17.89
75428;BMP280;64008;55.612;37.698;2023-01-16T05:35:21;99608.97;;;17.99
75428;BMP280;64008;55.612;37.698;2023-01-16T05:37:47;99609.69;;;17.75
75428;BMP280;64008;55.612;37.698;2023-01-16T05:40:12;99613.31;;;17.89
75428;BMP280;64008;55.612;37.698;2023-01-16T05:42:38;99607.03;;;17.75
75428;BMP280;64008;55.612;37.698;2023-01-16T05:45:07;99615.28;;;18.08
75428;BMP280;64008;55.612;37.698;2023-01-16T05:47:32;99610.81;;;17.98
75428;BMP280;64008;55.612;37.698;2023-01-16T05:49:58;99606.84;;;17.96
75428;BMP280;64008;55.612;37.698;2023-01-16T05:52:27;99604.22;;;17.90
75428;BMP280;64008;55.612;37.698;2023-01-16T05:54:53;99614.94;;;17.90
75428;BMP280;64008;55.612;37.698;2023-01-16T05:57:19;99611.63;;;17.99
75428;BMP280;64008;55.612;37.698;2023-01-16T05:59:49;99618.59;;;17.94
75428;BMP280;64008;55.612;37.698;2023-01-16T06:02:16;99611.53;;;17.80
75428;BMP280;64008;55.612;37.698;2023-01-16T06:04:41;99611.69;;;17.88
75428;BMP280;64008;55.612;37.698;2023-01-16T06:07:07;99609.59;;;17.85
75428;BMP280;64008;55.612;37.698;2023-01-16T06:09:32;99604.81;;;17.87
75428;BMP280;64008;55.612;37.698;2023-01-16T06:11:58;99610.31;;;17.67
75428;BMP280;64008;55.612;37.698;2023-01-16T06:14:23;99612.00;;;17.87
75428;BMP280;64008;55.612;37.698;2023-01-16T06:16:49;99603.03;;;17.78
75428;BMP280;64008;55.612;37.698;2023-01-16T06:19:14;99609.72;;;17.70
75428;BMP280;64008;55.612;37.698;2023-01-16T06:21:40;99615.91;;;17.65
75428;BMP280;64008;55.612;37.698;2023-01-16T06:24:05;99616.88;;;17.80
75428;BMP280;64008;55.612;37.698;2023-01-16T06:26:31;99613.47;;;18.03
75428;BMP280;64008;55.612;37.698;2023-01-16T06:28:57;99614.09;;;18.19
75428;BMP280;64008;55.612;37.698;2023-01-16T06:31:22;99620.22;;;18.25
75428;BMP280;64008;55.612;37.698;2023-01-16T06:33:48;99617.69;;;18.33
75428;BMP280;64008;55.612;37.698;2023-01-16T06:36:13;99615.94;;;18.48
75428;BMP280;64008;55.612;37.698;2023-01-16T06:38:39;99624.53;;;18.45
75428;BMP280;64008;55.612;37.698;2023-01-16T06:41:04;99623.53;;;18.41
75428;BMP280;64008;55.612;37.698;2023-01-16T06:43:30;99619.19;;;18.45
75428;BMP280;64008;55.612;37.698;2023-01-16T06:45:55;99612.72;;;18.51
75428;BMP280;64008;55.612;37.698;2023-01-16T06:48:21;99620.44;;;18.52
75428;BMP280;64008;55.612;37.698;2023-01-16T06:50:59;99628.88;;;18.41
75428;BMP280;64008;55.612;37.698;2023-01-16T06:53:25;99624.94;;;18.57
75428;BMP280;64008;55.612;37.698;2023-01-16T06:55:50;99615.94;;;18.48
75428;BMP280;64008;55.612;37.698;2023-01-16T06:58:16;99622.91;;;18.49
75428;BMP280;64008;55.612;37.698;2023-01-16T07:00:41;99629.44;;;18.62
75428;BMP280;64008;55.612;37.698;2023-01-16T07:03:08;99620.91;;;18.60
75428;BMP280;64008;55.612;37.698;2023-01-16T07:05:33;99617.94;;;18.61
75428;BMP280;64008;55.612;37.698;2023-01-16T07:07:59;99629.09;;;18.68
75428;BMP280;64008;55.612;37.698;2023-01-16T07:10:25;99624.50;;;18.50
75428;BMP280;64008;55.612;37.698;2023-01-16T07:12:51;99631.31;;;18.61
75428;BMP280;64008;55.612;37.698;2023-01-16T07:15:17;99641.09;;;18.47
75428;BMP280;64008;55.612;37.698;2023-01-16T07:18:02;99625.66;;;18.63
75428;BMP280;64008;55.612;37.698;2023-01-16T07:20:58;99640.13;;;18.62
75428;BMP280;64008;55.612;37.698;2023-01-16T07:23:44;99625.34;;;18.69
75428;BMP280;64008;55.612;37.698;2023-01-16T07:26:13;99622.03;;;18.77
75428;BMP280;64008;55.612;37.698;2023-01-16T07:28:39;99624.00;;;18.67
75428;BMP280;64008;55.612;37.698;2023-01-16T07:31:06;99632.81;;;18.72
75428;BMP280;64008;55.612;37.698;2023-01-16T07:33:32;99616.00;;;18.67
75428;BMP280;64008;55.612;37.698;2023-01-16T07:35:58;99633.88;;;18.71
75428;BMP280;64008;55.612;37.698;2023-01-16T07:38:23;99630.91;;;18.73
75428;BMP280;64008;55.612;37.698;2023-01-16T07:40:49;99627.97;;;18.74
75428;BMP280;64008;55.612;37.698;2023-01-16T07:43:14;99635.50;;;18.67
75428;BMP280;64008;55.612;37.698;2023-01-16T07:45:40;99643.50;;;18.72
75428;BMP280;64008;55.612;37.698;2023-01-16T07:48:05;99636.06;;;18.69
75428;BMP280;64008;55.612;37.698;2023-01-16T07:50:31;99628.44;;;18.76
75428;BMP280;64008;55.612;37.698;2023-01-16T07:52:57;99648.56;;;18.74
75428;BMP280;64008;55.612;37.698;2023-01-16T07:55:23;99663.88;;;18.68
75428;BMP280;64008;55.612;37.698;2023-01-16T07:57:49;99637.53;;;18.75
75428;BMP280;64008;55.612;37.698;2023-01-16T08:00:15;99629.81;;;18.74
75428;BMP280;64008;55.612;37.698;2023-01-16T08:02:41;99628.50;;;18.71
75428;BMP280;64008;55.612;37.698;2023-01-16T08:05:07;99630.72;;;18.69
75428;BMP280;64008;55.612;37.698;2023-01-16T08:07:33;99634.16;;;18.70
75428;BMP280;64008;55.612;37.698;2023-01-16T08:09:59;99637.53;;;18.75
75428;BMP280;64008;55.612;37.698;2023-01-16T08:12:24;99625.50;;;18.78
75428;BMP280;64008;55.612;37.698;2023-01-16T08:14:50;99627.31;;;18.83
75428;BMP280;64008;55.612;37.698;2023-01-16T08:17:15;99635.34;;;18.83
75428;BMP280;64008;55.612;37.698;2023-01-16T08:19:41;99628.06;;;18.64
75428;BMP280;64008;55.612;37.698;2023-01-16T08:22:06;99616.69;;;18.53
75428;BMP280;64008;55.612;37.698;2023-01-16T08:24:32;99634.31;;;18.54
75428;BMP280;64008;55.612;37.698;2023-01-16T08:26:57;99633.31;;;18.50
75428;BMP280;64008;55.612;37.698;2023-01-16T08:29:23;99629.31;;;18.48
75428;BMP280;64008;55.612;37.698;2023-01-16T08:31:49;99627.47;;;18.43
75428;BMP280;64008;55.612;37.698;2023-01-16T08:34:14;99625.09;;;18.42
75428;BMP280;64008;55.612;37.698;2023-01-16T08:36:40;99614.88;;;18.49
75428;BMP280;64008;55.612;37.698;2023-01-16T08:39:08;99634.50;;;18.39
75428;BMP280;64008;55.612;37.698;2023-01-16T08:41:34;99612.25;;;18.44
75428;BMP280;64008;55.612;37.698;2023-01-16T08:44:18;99626.81;;;18.32
75428;BMP280;64008;55.612;37.698;2023-01-16T08:47:11;99618.44;;;18.15
75428;BMP280;64008;55.612;37.698;2023-01-16T08:49:56;99616.59;;;18.10
75428;BMP280;64008;55.612;37.698;2023-01-16T08:52:41;99621.19;;;18.05
75428;BMP280;64008;55.612;37.698;2023-01-16T08:55:07;99611.25;;;18.10
75428;BMP280;64008;55.612;37.698;2023-01-16T08:57:33;99615.94;;;18.24
75428;BMP280;64008;55.612;37.698;2023-01-16T08:59:59;99610.41;;;18.15
75428;BMP280;64008;55.612;37.698;2023-01-16T09:02:25;99604.41;;;17.99
75428;BMP280;64008;55.612;37.698;2023-01-16T09:04:52;99620.91;;;18.06
75428;BMP280;64008;55.612;37.698;2023-01-16T09:07:19;99607.69;;;18.20
75428;BMP280;64008;55.612;37.698;2023-01-16T09:09:45;99609.03;;;18.18
75428;BMP280;64008;55.612;37.698;2023-01-16T09:12:11;99612.00;;;18.16
75428;BMP280;64008;55.612;37.698;2023-01-16T09:14:55;99605.16;;;18.05
75428;BMP280;64008;55.612;37.698;2023-01-16T09:17:22;99614.56;;;18.02
75428;BMP280;64008;55.612;37.698;2023-01-16T09:19:47;99592.88;;;18.04
75428;BMP280;64008;55.612;37.698;2023-01-16T09:22:13;99599.16;;;18.18
75428;BMP280;64008;55.612;37.698;2023-01-16T09:24:38;99597.88;;;18.10
75428;BMP280;64008;55.612;37.698;2023-01-16T09:27:04;99597.88;;;18.10
75428;BMP280;64008;55.612;37.698;2023-01-16T09:29:30;99599.84;;;18.00
75428;BMP280;64008;55.612;37.698;2023-01-16T09:31:55;99590.09;;;18.14
75428;BMP280;64008;55.612;37.698;2023-01-16T09:34:21;99594.16;;;18.11
75428;BMP280;64008;55.612;37.698;2023-01-16T09:36:46;99588.81;;;18.06
75428;BMP280;64008;55.612;37.698;2023-01-16T09:39:12;99583.31;;;17.98
75428;BMP280;64008;55.612;37.698;2023-01-16T09:42:03;99585.16;;;18.26
75428;BMP280;64008;55.612;37.698;2023-01-16T09:44:51;99574.56;;;18.40
75428;BMP280;64008;55.612;37.698;2023-01-16T09:47:21;99570.13;;;18.54
75428;BMP280;64008;55.612;37.698;2023-01-16T09:49:58;99574.22;;;18.47
75428;BMP280;64008;55.612;37.698;2023-01-16T09:52:28;99569.41;;;18.49
75428;BMP280;64008;55.612;37.698;2023-01-16T09:55:32;99562.38;;;18.53
75428;BMP280;64008;55.612;37.698;2023-01-16T09:58:20;99564.72;;;18.60
75428;BMP280;64008;55.612;37.698;2023-01-16T10:01:31;99549.09;;;18.67
75428;BMP280;64008;55.612;37.698;2023-01-16T10:04:15;99545.56;;;18.71
75428;BMP280;64008;55.612;37.698;2023-01-16T10:09:32;99540.50;;;18.70
75428;BMP280;64008;55.612;37.698;2023-01-16T10:12:04;99542.59;;;18.73
75428;BMP280;64008;55.612;37.698;2023-01-16T10:17:39;99544.41;;;18.77
75428;BMP280;64008;55.612;37.698;2023-01-16T10:20:43;99533.44;;;18.79
75428;BMP280;64008;55.612;37.698;2023-01-16T10:26:07;99530.97;;;18.83
75428;BMP280;64008;55.612;37.698;2023-01-16T10:28:50;99539.97;;;18.87
75428;BMP280;64008;55.612;37.698;2023-01-16T10:31:24;99529.63;;;18.80
75428;BMP280;64008;55.612;37.698;2023-01-16T10:34:02;99533.25;;;18.89
75428;BMP280;64008;55.612;37.698;2023-01-16T10:36:36;99531.91;;;18.92
75428;BMP280;64008;55.612;37.698;2023-01-16T10:39:04;99528.34;;;18.96
75428;BMP280;64008;55.612;37.698;2023-01-16T10:41:35;99529.81;;;18.89
75428;BMP280;64008;55.612;37.698;2023-01-16T10:47:13;99523.72;;;18.83
75428;BMP280;64008;55.612;37.698;2023-01-16T10:49:58;99542.66;;;18.87
75428;BMP280;64008;55.612;37.698;2023-01-16T10:52:24;99541.47;;;18.79
75428;BMP280;64008;55.612;37.698;2023-01-16T10:54:55;99547.09;;;18.77
75428;BMP280;64008;55.612;37.698;2023-01-16T10:57:21;99546.22;;;18.82
75428;BMP280;64008;55.612;37.698;2023-01-16T10:59:50;99557.72;;;18.83
75428;BMP280;64008;55.612;37.698;2023-01-16T11:02:18;99544.81;;;18.85
75428;BMP280;64008;55.612;37.698;2023-01-16T11:04:48;99547.44;;;18.71
75428;BMP280;64008;55.612;37.698;2023-01-16T11:07:19;99549.75;;;18.77
75428;BMP280;64008;55.612;37.698;2023-01-16T11:09:46;99546.06;;;18.73
75428;BMP280;64008;55.612;37.698;2023-01-16T11:12:21;99551.41;;;18.73
75428;BMP280;64008;55.612;37.698;2023-01-16T11:15:22;99540.72;;;18.73
75428;BMP280;64008;55.612;37.698;2023-01-16T11:18:28;99541.56;;;18.69
75428;BMP280;64008;55.612;37.698;2023-01-16T11:20:55;99528.44;;;18.72
75428;BMP280;64008;55.612;37.698;2023-01-16T11:23:24;99541.75;;;18.77
75428;BMP280;64008;55.612;37.698;2023-01-16T11:25:53;99532.16;;;18.71
75428;BMP280;64008;55.612;37.698;2023-01-16T11:28:29;99539.19;;;18.67
75428;BMP280;64008;55.612;37.698;2023-01-16T11:33:44;99540.47;;;18.51
75428;BMP280;64008;55.612;37.698;2023-01-16T11:36:11;99526.06;;;18.47
75428;BMP280;64008;55.612;37.698;2023-01-16T11:38:44;99530.00;;;18.54
75428;BMP280;64008;55.612;37.698;2023-01-16T11:41:10;99520.81;;;18.61
75428;BMP280;64008;55.612;37.698;2023-01-16T11:43:36;99533.19;;;18.56
75428;BMP280;64008;55.612;37.698;2023-01-16T11:46:33;99527.09;;;18.51
75428;BMP280;64008;55.612;37.698;2023-01-16T11:49:01;99520.03;;;18.60
75428;BMP280;64008;55.612;37.698;2023-01-16T11:51:32;99521.63;;;18.61
75428;BMP280;64008;55.612;37.698;2023-01-16T11:54:02;99528.00;;;18.65
75428;BMP280;64008;55.612;37.698;2023-01-16T12:13:40;99538.00;;;18.54
75428;BMP280;64008;55.612;37.698;2023-01-16T12:19:38;99546.31;;;18.53
75428;BMP280;64008;55.612;37.698;2023-01-16T12:22:36;99553.34;;;18.49
75428;BMP280;64008;55.612;37.698;2023-01-16T12:33:19;99536.22;;;18.50
75428;BMP280;64008;55.612;37.698;2023-01-16T12:38:19;99525.53;;;18.50
75428;BMP280;64008;55.612;37.698;2023-01-16T12:50:09;99520.72;;;18.47
75428;BMP280;64008;55.612;37.698;2023-01-16T12:58:05;99534.41;;;18.45
75428;BMP280;64008;55.612;37.698;2023-01-16T13:00:43;99541.78;;;18.53
75428;BMP280;64008;55.612;37.698;2023-01-16T13:03:31;99530.88;;;18.50
75428;BMP280;64008;55.612;37.698;2023-01-16T13:06:06;99533.31;;;18.46
75428;BMP280;64008;55.612;37.698;2023-01-16T13:08:45;99526.94;;;18.18
75428;BMP280;64008;55.612;37.698;2023-01-16T13:11:21;99523.19;;;18.19
75428;BMP280;64008;55.612;37.698;2023-01-16T13:14:09;99524.22;;;18.23
75428;BMP280;64008;55.612;37.698;2023-01-16T13:16:54;99518.72;;;18.14
75428;BMP280;64008;55.612;37.698;2023-01-16T13:19:27;99518.31;;;18.26
75428;BMP280;64008;55.612;37.698;2023-01-16T13:21:56;99528.59;;;18.14
75428;BMP280;64008;55.612;37.698;2023-01-16T13:24:31;99533.56;;;18.02
75428;BMP280;64008;55.612;37.698;2023-01-16T13:27:01;99513.75;;;18.03
75428;BMP280;64008;55.612;37.698;2023-01-16T13:29:33;99517.81;;;18.00
75428;BMP280;64008;55.612;37.698;2023-01-16T13:32:43;99518.06;;;18.23
75428;BMP280;64008;55.612;37.698;2023-01-16T13:34:53;99524.94;;;18.29
75428;BMP280;64008;55.612;37.698;2023-01-16T13:37:33;99531.91;;;18.30
75428;BMP280;64008;55.612;37.698;2023-01-16T13:42:40;99528.38;;;18.34
75428;BMP280;64008;55.612;37.698;2023-01-16T13:45:16;99533.13;;;18.38
75428;BMP280;64008;55.612;37.698;2023-01-16T13:48:02;99522.88;;;18.45
75428;BMP280;64008;55.612;37.698;2023-01-16T13:50:30;99516.13;;;18.28
75428;BMP280;64008;55.612;37.698;2023-01-16T13:53:00;99514.22;;;18.34
75428;BMP280;64008;55.612;37.698;2023-01-16T13:55:32;99522.44;;;18.38
75428;BMP280;64008;55.612;37.698;2023-01-16T13:58:21;99515.72;;;18.40
75428;BMP280;64008;55.612;37.698;2023-01-16T14:00:59;99524.56;;;18.41
75428;BMP280;64008;55.612;37.698;2023-01-16T14:03:27;99536.97;;;18.31
75428;BMP280;64008;55.612;37.698;2023-01-16T14:11:38;99534.22;;;18.36
75428;BMP280;64008;55.612;37.698;2023-01-16T14:17:13;99537.72;;;18.32
75428;BMP280;64008;55.612;37.698;2023-01-16T14:19:57;99535.88;;;18.32
75428;BMP280;64008;55.612;37.698;2023-01-16T14:22:39;99544.34;;;18.40
75428;BMP280;64008;55.612;37.698;2023-01-16T14:25:16;99546.81;;;18.36
75428;BMP280;64008;55.612;37.698;2023-01-16T14:27:43;99541.47;;;18.36
75428;BMP280;64008;55.612;37.698;2023-01-16T14:30:17;99530.97;;;18.40
75428;BMP280;64008;55.612;37.698;2023-01-16T14:32:56;99527.78;;;18.38
75428;BMP280;64008;55.612;37.698;2023-01-16T14:35:41;99514.34;;;18.43
75428;BMP280;64008;55.612;37.698;2023-01-16T14:38:17;99529.06;;;18.45
75428;BMP280;64008;55.612;37.698;2023-01-16T14:40:53;99517.59;;;18.40
75428;BMP280;64008;55.612;37.698;2023-01-16T14:44:01;99532.06;;;18.39
75428;BMP280;64008;55.612;37.698;2023-01-16T14:46:51;99529.41;;;18.39
75428;BMP280;64008;55.612;37.698;2023-01-16T14:55:26;99533.81;;;18.48
75428;BMP280;64008;55.612;37.698;2023-01-16T14:57:55;99537.56;;;18.47
75428;BMP280;64008;55.612;37.698;2023-01-16T15:00:22;99541.56;;;18.50
75428;BMP280;64008;55.612;37.698;2023-01-16T15:02:56;99541.34;;;18.46
75428;BMP280;64008;55.612;37.698;2023-01-16T15:05:33;99539.38;;;18.52
75428;BMP280;64008;55.612;37.698;2023-01-16T15:08:29;99537.81;;;18.51
75428;BMP280;64008;55.612;37.698;2023-01-16T15:10:56;99540.97;;;18.53
75428;BMP280;64008;55.612;37.698;2023-01-16T15:13:24;99521.75;;;18.51
75428;BMP280;64008;55.612;37.698;2023-01-16T15:16:00;99524.19;;;18.47
75428;BMP280;64008;55.612;37.698;2023-01-16T15:18:27;99534.81;;;18.52
75428;BMP280;64008;55.612;37.698;2023-01-16T15:21:16;99529.69;;;18.56
75428;BMP280;64008;55.612;37.698;2023-01-16T15:24:02;99534.81;;;18.52
75428;BMP280;64008;55.612;37.698;2023-01-16T15:26:53;99540.75;;;18.49
75428;BMP280;64008;55.612;37.698;2023-01-16T15:29:57;99531.28;;;18.57
75428;BMP280;64008;55.612;37.698;2023-01-16T15:32:26;99535.84;;;18.56
75428;BMP280;64008;55.612;37.698;2023-01-16T15:35:24;99536.78;;;18.47
75428;BMP280;64008;55.612;37.698;2023-01-16T15:37:51;99526.31;;;18.50
75428;BMP280;64008;55.612;37.698;2023-01-16T15:40:28;99543.91;;;18.51
75428;BMP280;64008;55.612;37.698;2023-01-16T15:42:55;99533.88;;;18.43
75428;BMP280;64008;55.612;37.698;2023-01-16T15:45:53;99530.81;;;18.55
75428;BMP280;64008;55.612;37.698;2023-01-16T15:51:11;99515.81;;;18.54
75428;BMP280;64008;55.612;37.698;2023-01-16T15:53:42;99514.97;;;18.58
75428;BMP280;64008;55.612;37.698;2023-01-16T15:59:00;99504.25;;;18.58
75428;BMP280;64008;55.612;37.698;2023-01-16T16:01:28;99509.47;;;18.50
75428;BMP280;64008;55.612;37.698;2023-01-16T16:03:54;99497.09;;;18.54
75428;BMP280;64008;55.612;37.698;2023-01-16T16:06:21;99499.91;;;18.63
75428;BMP280;64008;55.612;37.698;2023-01-16T16:08:51;99507.59;;;18.50
75428;BMP280;64008;55.612;37.698;2023-01-16T16:11:25;99510.94;;;18.56
75428;BMP280;64008;55.612;37.698;2023-01-16T16:14:29;99514.22;;;18.53
75428;BMP280;64008;55.612;37.698;2023-01-16T16:17:29;99514.81;;;18.50
75428;BMP280;64008;55.612;37.698;2023-01-16T16:23:17;99516.41;;;18.51
75428;BMP280;64008;55.612;37.698;2023-01-16T16:25:56;99507.06;;;18.48